sensor_id;sensor_type;location;lat;lon;timestamp;P1;durP1;ratioP1;P2;durP2;ratioP2
22078;SDS011;11206;57.696;11.944;2022-07-18T00:01:37;7.75;;;2.00;;
22078;SDS011;11206;57.696;11.944;2022-07-18T00:04:03;2.72;;;1.20;;
22078;SDS011;11206;57.696;11.944;2022-07-18T00:06:29;6.32;;;1.75;;
22078;SDS011;11206;57.696;11.944;2022-07-18T00:08:55;7.53;;;1.10;;
22078;SDS011;11206;57.696;11.944;2022-07-18T00:11:21;5.50;;;1.27;;
22078;SDS011;11206;57.696;11.944;2022-07-18T00:13:48;5.47;;;1.38;;
22078;SDS011;11206;57.696;11.944;2022-07-18T00:16:16;4.85;;;1.48;;
22078;SDS011;11206;57.696;11.944;2022-07-18T00:18:42;11.43;;;1.55;;
22078;SDS011;11206;57.696;11.944;2022-07-18T00:21:08;6.43;;;0.70;;
22078;SDS011;11206;57.696;11.944;2022-07-18T00:23:35;1.90;;;0.90;;
22078;SDS011;11206;57.696;11.944;2022-07-18T00:26:01;3.78;;;1.23;;
22078;SDS011;11206;57.696;11.944;2022-07-18T00:28:27;6.63;;;1.20;;
22078;SDS011;11206;57.696;11.944;2022-07-18T00:30:53;5.25;;;1.00;;
22078;SDS011;11206;57.696;11.944;2022-07-18T00:33:19;6.63;;;1.35;;
22078;SDS011;11206;57.696;11.944;2022-07-18T00:35:45;6.63;;;1.38;;
22078;SDS011;11206;57.696;11.944;2022-07-18T00:38:11;6.78;;;1.42;;
22078;SDS011;11206;57.696;11.944;2022-07-18T00:43:16;10.05;;;1.20;;
22078;SDS011;11206;57.696;11.944;2022-07-18T00:45:46;6.40;;;1.20;;
22078;SDS011;11206;57.696;11.944;2022-07-18T00:48:12;2.20;;;1.00;;
22078;SDS011;11206;57.696;11.944;2022-07-18T00:50:39;3.33;;;1.23;;
22078;SDS011;11206;57.696;11.944;2022-07-18T00:53:05;9.45;;;1.75;;
22078;SDS011;11206;57.696;11.944;2022-07-18T00:55:33;5.40;;;1.17;;
22078;SDS011;11206;57.696;11.944;2022-07-18T00:57:59;5.00;;;1.05;;
22078;SDS011;11206;57.696;11.944;2022-07-18T01:00:25;5.35;;;1.25;;
22078;SDS011;11206;57.696;11.944;2022-07-18T01:03:10;5.38;;;1.05;;
22078;SDS011;11206;57.696;11.944;2022-07-18T01:05:36;5.50;;;1.38;;
22078;SDS011;11206;57.696;11.944;2022-07-18T01:08:02;7.07;;;1.30;;
22078;SDS011;11206;57.696;11.944;2022-07-18T01:10:29;3.40;;;0.82;;
22078;SDS011;11206;57.696;11.944;2022-07-18T01:12:55;4.32;;;0.75;;
22078;SDS011;11206;57.696;11.944;2022-07-18T01:15:21;7.03;;;1.23;;
22078;SDS011;11206;57.696;11.944;2022-07-18T01:17:47;6.43;;;1.35;;
22078;SDS011;11206;57.696;11.944;2022-07-18T01:20:14;9.55;;;1.38;;
22078;SDS011;11206;57.696;11.944;2022-07-18T01:22:41;6.40;;;1.30;;
22078;SDS011;11206;57.696;11.944;2022-07-18T01:25:08;6.00;;;1.08;;
22078;SDS011;11206;57.696;11.944;2022-07-18T01:27:34;5.57;;;1.25;;
22078;SDS011;11206;57.696;11.944;2022-07-18T01:30:00;7.10;;;1.25;;
22078;SDS011;11206;57.696;11.944;2022-07-18T01:32:27;8.50;;;1.02;;
22078;SDS011;11206;57.696;11.944;2022-07-18T01:34:53;5.25;;;0.60;;
22078;SDS011;11206;57.696;11.944;2022-07-18T01:37:19;7.97;;;1.13;;
22078;SDS011;11206;57.696;11.944;2022-07-18T01:39:45;3.47;;;1.08;;
22078;SDS011;11206;57.696;11.944;2022-07-18T01:42:12;7.03;;;1.48;;
22078;SDS011;11206;57.696;11.944;2022-07-18T01:44:38;9.40;;;1.65;;
22078;SDS011;11206;57.696;11.944;2022-07-18T01:47:05;8.77;;;1.40;;
22078;SDS011;11206;57.696;11.944;2022-07-18T01:49:32;7.30;;;1.38;;
22078;SDS011;11206;57.696;11.944;2022-07-18T01:54:42;6.18;;;0.98;;
22078;SDS011;11206;57.696;11.944;2022-07-18T01:57:08;3.72;;;0.98;;
22078;SDS011;11206;57.696;11.944;2022-07-18T01:59:35;4.20;;;1.10;;
22078;SDS011;11206;57.696;11.944;2022-07-18T02:02:02;2.90;;;1.10;;
22078;SDS011;11206;57.696;11.944;2022-07-18T02:04:28;8.90;;;1.10;;
22078;SDS011;11206;57.696;11.944;2022-07-18T02:07:13;2.10;;;0.93;;
22078;SDS011;11206;57.696;11.944;2022-07-18T02:09:40;3.00;;;1.30;;
22078;SDS011;11206;57.696;11.944;2022-07-18T02:12:06;9.05;;;1.38;;
22078;SDS011;11206;57.696;11.944;2022-07-18T02:14:32;4.05;;;1.27;;
22078;SDS011;11206;57.696;11.944;2022-07-18T02:16:58;13.48;;;1.65;;
22078;SDS011;11206;57.696;11.944;2022-07-18T02:19:24;7.25;;;1.35;;
22078;SDS011;11206;57.696;11.944;2022-07-18T02:21:50;7.13;;;1.77;;
22078;SDS011;11206;57.696;11.944;2022-07-18T02:24:16;6.10;;;1.48;;
22078;SDS011;11206;57.696;11.944;2022-07-18T02:26:42;6.68;;;1.05;;
22078;SDS011;11206;57.696;11.944;2022-07-18T02:29:08;4.03;;;1.30;;
22078;SDS011;11206;57.696;11.944;2022-07-18T02:31:35;4.80;;;1.10;;
22078;SDS011;11206;57.696;11.944;2022-07-18T02:34:03;2.22;;;1.10;;
22078;SDS011;11206;57.696;11.944;2022-07-18T02:36:38;3.28;;;1.10;;
22078;SDS011;11206;57.696;11.944;2022-07-18T02:39:06;6.25;;;1.23;;
22078;SDS011;11206;57.696;11.944;2022-07-18T02:41:34;6.60;;;1.38;;
22078;SDS011;11206;57.696;11.944;2022-07-18T02:44:00;10.02;;;1.90;;
22078;SDS011;11206;57.696;11.944;2022-07-18T02:46:27;7.85;;;1.73;;
22078;SDS011;11206;57.696;11.944;2022-07-18T02:48:54;9.88;;;1.70;;
22078;SDS011;11206;57.696;11.944;2022-07-18T02:51:22;5.80;;;1.67;;
22078;SDS011;11206;57.696;11.944;2022-07-18T02:53:49;11.55;;;1.92;;
22078;SDS011;11206;57.696;11.944;2022-07-18T02:56:15;13.98;;;2.13;;
22078;SDS011;11206;57.696;11.944;2022-07-18T02:58:41;7.07;;;1.50;;
22078;SDS011;11206;57.696;11.944;2022-07-18T03:01:07;5.53;;;1.42;;
22078;SDS011;11206;57.696;11.944;2022-07-18T03:03:33;4.60;;;1.65;;
22078;SDS011;11206;57.696;11.944;2022-07-18T03:05:59;8.60;;;1.55;;
22078;SDS011;11206;57.696;11.944;2022-07-18T03:08:25;3.80;;;1.05;;
22078;SDS011;11206;57.696;11.944;2022-07-18T03:10:52;6.05;;;1.60;;
22078;SDS011;11206;57.696;11.944;2022-07-18T03:13:19;3.20;;;1.40;;
22078;SDS011;11206;57.696;11.944;2022-07-18T03:15:45;10.45;;;1.73;;
22078;SDS011;11206;57.696;11.944;2022-07-18T03:18:11;8.13;;;1.73;;
22078;SDS011;11206;57.696;11.944;2022-07-18T03:20:37;9.35;;;1.42;;
22078;SDS011;11206;57.696;11.944;2022-07-18T03:23:04;5.97;;;1.48;;
22078;SDS011;11206;57.696;11.944;2022-07-18T03:25:31;4.75;;;1.65;;
22078;SDS011;11206;57.696;11.944;2022-07-18T03:27:57;6.95;;;1.52;;
22078;SDS011;11206;57.696;11.944;2022-07-18T03:30:23;5.18;;;1.40;;
22078;SDS011;11206;57.696;11.944;2022-07-18T03:32:49;6.82;;;1.40;;
22078;SDS011;11206;57.696;11.944;2022-07-18T03:35:15;8.45;;;1.50;;
22078;SDS011;11206;57.696;11.944;2022-07-18T03:37:42;6.25;;;1.60;;
22078;SDS011;11206;57.696;11.944;2022-07-18T03:40:08;5.43;;;1.70;;
22078;SDS011;11206;57.696;11.944;2022-07-18T03:42:41;8.48;;;1.45;;
22078;SDS011;11206;57.696;11.944;2022-07-18T03:45:07;12.45;;;1.58;;
22078;SDS011;11206;57.696;11.944;2022-07-18T03:47:34;4.75;;;1.38;;
22078;SDS011;11206;57.696;11.944;2022-07-18T03:50:00;7.03;;;1.67;;
22078;SDS011;11206;57.696;11.944;2022-07-18T03:52:26;12.32;;;1.73;;
22078;SDS011;11206;57.696;11.944;2022-07-18T03:54:53;7.82;;;1.70;;
22078;SDS011;11206;57.696;11.944;2022-07-18T03:57:20;5.75;;;1.75;;
22078;SDS011;11206;57.696;11.944;2022-07-18T03:59:46;3.00;;;1.77;;
22078;SDS011;11206;57.696;11.944;2022-07-18T04:02:12;11.75;;;2.00;;
22078;SDS011;11206;57.696;11.944;2022-07-18T04:04:38;8.10;;;1.45;;
22078;SDS011;11206;57.696;11.944;2022-07-18T04:07:04;6.47;;;1.42;;
22078;SDS011;11206;57.696;11.944;2022-07-18T04:09:30;7.60;;;1.63;;
22078;SDS011;11206;57.696;11.944;2022-07-18T04:11:56;5.95;;;1.17;;
22078;SDS011;11206;57.696;11.944;2022-07-18T04:14:22;5.20;;;1.15;;
22078;SDS011;11206;57.696;11.944;2022-07-18T04:16:48;4.15;;;1.20;;
22078;SDS011;11206;57.696;11.944;2022-07-18T04:19:15;4.90;;;1.40;;
22078;SDS011;11206;57.696;11.944;2022-07-18T04:21:42;2.28;;;1.20;;
22078;SDS011;11206;57.696;11.944;2022-07-18T04:24:08;6.68;;;1.42;;
22078;SDS011;11206;57.696;11.944;2022-07-18T04:26:34;5.25;;;1.52;;
22078;SDS011;11206;57.696;11.944;2022-07-18T04:29:00;3.65;;;1.20;;
22078;SDS011;11206;57.696;11.944;2022-07-18T04:31:30;5.90;;;1.35;;
22078;SDS011;11206;57.696;11.944;2022-07-18T04:34:02;2.58;;;1.30;;
22078;SDS011;11206;57.696;11.944;2022-07-18T04:36:30;4.40;;;1.40;;
22078;SDS011;11206;57.696;11.944;2022-07-18T04:38:56;7.22;;;1.25;;
22078;SDS011;11206;57.696;11.944;2022-07-18T04:41:23;3.35;;;1.40;;
22078;SDS011;11206;57.696;11.944;2022-07-18T04:43:50;3.22;;;1.08;;
22078;SDS011;11206;57.696;11.944;2022-07-18T04:46:17;2.55;;;1.20;;
22078;SDS011;11206;57.696;11.944;2022-07-18T04:48:43;3.80;;;1.00;;
22078;SDS011;11206;57.696;11.944;2022-07-18T04:51:09;2.25;;;1.17;;
22078;SDS011;11206;57.696;11.944;2022-07-18T04:53:35;11.23;;;1.90;;
22078;SDS011;11206;57.696;11.944;2022-07-18T04:56:01;5.28;;;1.20;;
22078;SDS011;11206;57.696;11.944;2022-07-18T04:58:27;4.70;;;1.02;;
22078;SDS011;11206;57.696;11.944;2022-07-18T05:00:53;2.25;;;1.00;;
22078;SDS011;11206;57.696;11.944;2022-07-18T05:03:21;1.65;;;0.60;;
22078;SDS011;11206;57.696;11.944;2022-07-18T05:05:47;4.75;;;1.33;;
22078;SDS011;11206;57.696;11.944;2022-07-18T05:08:13;3.55;;;1.63;;
22078;SDS011;11206;57.696;11.944;2022-07-18T05:10:39;8.60;;;1.60;;
22078;SDS011;11206;57.696;11.944;2022-07-18T05:13:05;7.07;;;1.27;;
22078;SDS011;11206;57.696;11.944;2022-07-18T05:15:31;3.83;;;1.40;;
22078;SDS011;11206;57.696;11.944;2022-07-18T05:17:58;5.95;;;1.35;;
22078;SDS011;11206;57.696;11.944;2022-07-18T05:20:25;5.32;;;1.30;;
22078;SDS011;11206;57.696;11.944;2022-07-18T05:22:52;4.05;;;0.95;;
22078;SDS011;11206;57.696;11.944;2022-07-18T05:25:18;7.15;;;1.10;;
22078;SDS011;11206;57.696;11.944;2022-07-18T05:27:45;4.90;;;0.88;;
22078;SDS011;11206;57.696;11.944;2022-07-18T05:30:12;2.17;;;0.88;;
22078;SDS011;11206;57.696;11.944;2022-07-18T05:32:39;5.97;;;1.35;;
22078;SDS011;11206;57.696;11.944;2022-07-18T05:35:06;2.30;;;1.20;;
22078;SDS011;11206;57.696;11.944;2022-07-18T05:37:32;6.65;;;1.30;;
22078;SDS011;11206;57.696;11.944;2022-07-18T05:40:00;5.65;;;1.20;;
22078;SDS011;11206;57.696;11.944;2022-07-18T05:42:26;5.72;;;2.03;;
22078;SDS011;11206;57.696;11.944;2022-07-18T05:44:53;4.57;;;1.55;;
22078;SDS011;11206;57.696;11.944;2022-07-18T05:47:19;4.15;;;1.30;;
22078;SDS011;11206;57.696;11.944;2022-07-18T05:49:45;10.48;;;1.63;;
22078;SDS011;11206;57.696;11.944;2022-07-18T05:52:11;10.13;;;3.13;;
22078;SDS011;11206;57.696;11.944;2022-07-18T05:54:37;8.02;;;2.05;;
22078;SDS011;11206;57.696;11.944;2022-07-18T05:57:03;6.53;;;1.50;;
22078;SDS011;11206;57.696;11.944;2022-07-18T05:59:29;6.88;;;1.92;;
22078;SDS011;11206;57.696;11.944;2022-07-18T06:01:55;6.22;;;1.67;;
22078;SDS011;11206;57.696;11.944;2022-07-18T06:04:21;4.75;;;1.77;;
22078;SDS011;11206;57.696;11.944;2022-07-18T06:06:47;4.93;;;1.65;;
22078;SDS011;11206;57.696;11.944;2022-07-18T06:09:15;6.07;;;1.23;;
22078;SDS011;11206;57.696;11.944;2022-07-18T06:11:41;2.33;;;1.27;;
22078;SDS011;11206;57.696;11.944;2022-07-18T06:14:07;3.65;;;1.55;;
22078;SDS011;11206;57.696;11.944;2022-07-18T06:16:33;5.03;;;2.05;;
22078;SDS011;11206;57.696;11.944;2022-07-18T06:18:59;4.68;;;1.70;;
22078;SDS011;11206;57.696;11.944;2022-07-18T06:21:26;5.55;;;1.83;;
22078;SDS011;11206;57.696;11.944;2022-07-18T06:23:52;4.55;;;2.15;;
22078;SDS011;11206;57.696;11.944;2022-07-18T06:26:18;9.07;;;2.17;;
22078;SDS011;11206;57.696;11.944;2022-07-18T06:28:44;8.15;;;2.20;;
22078;SDS011;11206;57.696;11.944;2022-07-18T06:31:10;7.15;;;1.95;;
22078;SDS011;11206;57.696;11.944;2022-07-18T06:33:40;9.60;;;3.67;;
22078;SDS011;11206;57.696;11.944;2022-07-18T06:36:06;8.65;;;2.10;;
22078;SDS011;11206;57.696;11.944;2022-07-18T06:38:32;7.10;;;1.90;;
22078;SDS011;11206;57.696;11.944;2022-07-18T06:40:58;5.20;;;1.60;;
22078;SDS011;11206;57.696;11.944;2022-07-18T06:43:24;3.78;;;1.85;;
22078;SDS011;11206;57.696;11.944;2022-07-18T06:45:50;6.75;;;2.03;;
22078;SDS011;11206;57.696;11.944;2022-07-18T06:48:17;5.78;;;1.85;;
22078;SDS011;11206;57.696;11.944;2022-07-18T06:50:43;7.55;;;2.25;;
22078;SDS011;11206;57.696;11.944;2022-07-18T06:53:10;7.22;;;1.45;;
22078;SDS011;11206;57.696;11.944;2022-07-18T06:55:36;5.28;;;1.90;;
22078;SDS011;11206;57.696;11.944;2022-07-18T06:58:03;6.53;;;1.50;;
22078;SDS011;11206;57.696;11.944;2022-07-18T07:00:29;7.25;;;2.20;;
22078;SDS011;11206;57.696;11.944;2022-07-18T07:02:55;5.10;;;1.63;;
22078;SDS011;11206;57.696;11.944;2022-07-18T07:05:21;9.93;;;1.63;;
22078;SDS011;11206;57.696;11.944;2022-07-18T07:07:48;5.57;;;1.80;;
22078;SDS011;11206;57.696;11.944;2022-07-18T07:10:15;7.40;;;1.77;;
22078;SDS011;11206;57.696;11.944;2022-07-18T07:12:42;3.42;;;1.70;;
22078;SDS011;11206;57.696;11.944;2022-07-18T07:15:09;8.18;;;2.10;;
22078;SDS011;11206;57.696;11.944;2022-07-18T07:17:35;2.75;;;1.40;;
22078;SDS011;11206;57.696;11.944;2022-07-18T07:20:05;5.63;;;1.75;;
22078;SDS011;11206;57.696;11.944;2022-07-18T07:22:32;6.45;;;2.22;;
22078;SDS011;11206;57.696;11.944;2022-07-18T07:24:58;14.70;;;2.50;;
22078;SDS011;11206;57.696;11.944;2022-07-18T07:27:24;7.05;;;2.03;;
22078;SDS011;11206;57.696;11.944;2022-07-18T07:29:50;6.35;;;2.20;;
22078;SDS011;11206;57.696;11.944;2022-07-18T07:32:16;8.10;;;2.63;;
22078;SDS011;11206;57.696;11.944;2022-07-18T07:34:42;6.50;;;3.15;;
22078;SDS011;11206;57.696;11.944;2022-07-18T07:37:08;10.13;;;2.83;;
22078;SDS011;11206;57.696;11.944;2022-07-18T07:39:34;9.85;;;2.72;;
22078;SDS011;11206;57.696;11.944;2022-07-18T07:42:01;11.55;;;3.50;;
22078;SDS011;11206;57.696;11.944;2022-07-18T07:44:27;15.23;;;3.67;;
22078;SDS011;11206;57.696;11.944;2022-07-18T07:46:53;6.63;;;2.53;;
22078;SDS011;11206;57.696;11.944;2022-07-18T07:49:19;9.93;;;3.25;;
22078;SDS011;11206;57.696;11.944;2022-07-18T07:51:45;11.15;;;3.08;;
22078;SDS011;11206;57.696;11.944;2022-07-18T07:54:11;9.52;;;3.15;;
22078;SDS011;11206;57.696;11.944;2022-07-18T07:56:37;5.70;;;2.60;;
22078;SDS011;11206;57.696;11.944;2022-07-18T07:59:03;9.02;;;3.00;;
22078;SDS011;11206;57.696;11.944;2022-07-18T08:01:29;7.63;;;3.22;;
22078;SDS011;11206;57.696;11.944;2022-07-18T08:03:55;12.10;;;3.50;;
22078;SDS011;11206;57.696;11.944;2022-07-18T08:06:21;9.70;;;2.40;;
22078;SDS011;11206;57.696;11.944;2022-07-18T08:08:48;15.52;;;4.47;;
22078;SDS011;11206;57.696;11.944;2022-07-18T08:11:14;10.63;;;3.05;;
22078;SDS011;11206;57.696;11.944;2022-07-18T08:13:40;8.80;;;2.63;;
22078;SDS011;11206;57.696;11.944;2022-07-18T08:16:06;13.60;;;3.65;;
22078;SDS011;11206;57.696;11.944;2022-07-18T08:18:32;11.88;;;2.70;;
22078;SDS011;11206;57.696;11.944;2022-07-18T08:20:58;9.52;;;2.63;;
22078;SDS011;11206;57.696;11.944;2022-07-18T08:23:24;6.35;;;2.30;;
22078;SDS011;11206;57.696;11.944;2022-07-18T08:25:50;6.47;;;2.83;;
22078;SDS011;11206;57.696;11.944;2022-07-18T08:28:16;8.18;;;2.72;;
22078;SDS011;11206;57.696;11.944;2022-07-18T08:30:43;12.52;;;3.17;;
22078;SDS011;11206;57.696;11.944;2022-07-18T08:33:09;10.45;;;2.30;;
22078;SDS011;11206;57.696;11.944;2022-07-18T08:35:35;8.85;;;2.83;;
22078;SDS011;11206;57.696;11.944;2022-07-18T08:38:02;9.55;;;2.20;;
22078;SDS011;11206;57.696;11.944;2022-07-18T08:40:29;7.43;;;2.72;;
22078;SDS011;11206;57.696;11.944;2022-07-18T08:42:55;5.03;;;2.05;;
22078;SDS011;11206;57.696;11.944;2022-07-18T08:45:22;8.23;;;2.53;;
22078;SDS011;11206;57.696;11.944;2022-07-18T08:47:49;6.13;;;2.28;;
22078;SDS011;11206;57.696;11.944;2022-07-18T08:50:17;7.93;;;2.55;;
22078;SDS011;11206;57.696;11.944;2022-07-18T08:52:44;7.93;;;2.33;;
22078;SDS011;11206;57.696;11.944;2022-07-18T08:55:11;6.75;;;2.63;;
22078;SDS011;11206;57.696;11.944;2022-07-18T08:57:37;7.35;;;2.42;;
22078;SDS011;11206;57.696;11.944;2022-07-18T09:00:04;3.38;;;1.58;;
22078;SDS011;11206;57.696;11.944;2022-07-18T09:02:31;6.20;;;2.00;;
22078;SDS011;11206;57.696;11.944;2022-07-18T09:04:57;13.88;;;2.28;;
22078;SDS011;11206;57.696;11.944;2022-07-18T09:07:27;6.43;;;1.88;;
22078;SDS011;11206;57.696;11.944;2022-07-18T09:09:59;10.07;;;2.58;;
22078;SDS011;11206;57.696;11.944;2022-07-18T09:12:27;11.50;;;2.20;;
22078;SDS011;11206;57.696;11.944;2022-07-18T09:14:56;5.55;;;2.25;;
22078;SDS011;11206;57.696;11.944;2022-07-18T09:22:38;8.90;;;2.85;;
22078;SDS011;11206;57.696;11.944;2022-07-18T09:32:52;10.20;;;2.70;;
22078;SDS011;11206;57.696;11.944;2022-07-18T09:35:20;6.82;;;2.60;;
22078;SDS011;11206;57.696;11.944;2022-07-18T09:40:25;10.15;;;3.05;;
22078;SDS011;11206;57.696;11.944;2022-07-18T09:42:53;7.35;;;2.25;;
22078;SDS011;11206;57.696;11.944;2022-07-18T09:45:39;15.38;;;2.97;;
22078;SDS011;11206;57.696;11.944;2022-07-18T09:48:09;15.55;;;3.33;;
22078;SDS011;11206;57.696;11.944;2022-07-18T09:50:38;11.43;;;3.22;;
22078;SDS011;11206;57.696;11.944;2022-07-18T09:53:25;10.57;;;3.13;;
22078;SDS011;11206;57.696;11.944;2022-07-18T09:55:54;9.40;;;2.90;;
22078;SDS011;11206;57.696;11.944;2022-07-18T09:58:23;5.65;;;2.60;;
22078;SDS011;11206;57.696;11.944;2022-07-18T10:00:50;10.40;;;2.80;;
22078;SDS011;11206;57.696;11.944;2022-07-18T10:03:20;9.57;;;3.33;;
22078;SDS011;11206;57.696;11.944;2022-07-18T10:06:05;11.63;;;2.30;;
22078;SDS011;11206;57.696;11.944;2022-07-18T10:08:31;12.32;;;3.17;;
22078;SDS011;11206;57.696;11.944;2022-07-18T10:10:59;14.30;;;3.22;;
22078;SDS011;11206;57.696;11.944;2022-07-18T10:13:26;9.73;;;3.10;;
22078;SDS011;11206;57.696;11.944;2022-07-18T10:15:54;13.55;;;3.10;;
22078;SDS011;11206;57.696;11.944;2022-07-18T10:18:25;7.93;;;3.03;;
22078;SDS011;11206;57.696;11.944;2022-07-18T10:21:14;14.82;;;3.70;;
22078;SDS011;11206;57.696;11.944;2022-07-18T10:23:46;17.98;;;3.00;;
22078;SDS011;11206;57.696;11.944;2022-07-18T10:26:19;11.60;;;3.40;;
22078;SDS011;11206;57.696;11.944;2022-07-18T10:31:30;16.38;;;3.90;;
22078;SDS011;11206;57.696;11.944;2022-07-18T10:36:38;18.90;;;4.43;;
22078;SDS011;11206;57.696;11.944;2022-07-18T10:42:20;9.55;;;3.67;;
22078;SDS011;11206;57.696;11.944;2022-07-18T10:47:02;8.73;;;3.65;;
22078;SDS011;11206;57.696;11.944;2022-07-18T10:55:18;14.35;;;3.63;;
22078;SDS011;11206;57.696;11.944;2022-07-18T11:03:02;19.92;;;4.32;;
22078;SDS011;11206;57.696;11.944;2022-07-18T11:13:21;12.93;;;3.20;;
22078;SDS011;11206;57.696;11.944;2022-07-18T11:18:20;8.80;;;2.58;;
22078;SDS011;11206;57.696;11.944;2022-07-18T11:20:47;14.65;;;3.42;;
22078;SDS011;11206;57.696;11.944;2022-07-18T11:23:17;11.10;;;3.60;;
22078;SDS011;11206;57.696;11.944;2022-07-18T11:25:44;8.65;;;2.75;;
22078;SDS011;11206;57.696;11.944;2022-07-18T11:28:10;8.50;;;2.92;;
22078;SDS011;11206;57.696;11.944;2022-07-18T11:30:37;7.22;;;2.88;;
22078;SDS011;11206;57.696;11.944;2022-07-18T11:33:04;9.70;;;3.60;;
22078;SDS011;11206;57.696;11.944;2022-07-18T11:35:30;9.35;;;3.88;;
22078;SDS011;11206;57.696;11.944;2022-07-18T11:37:57;15.80;;;3.30;;
22078;SDS011;11206;57.696;11.944;2022-07-18T11:40:23;18.25;;;3.15;;
22078;SDS011;11206;57.696;11.944;2022-07-18T11:42:49;16.20;;;3.95;;
22078;SDS011;11206;57.696;11.944;2022-07-18T11:45:15;10.93;;;3.72;;
22078;SDS011;11206;57.696;11.944;2022-07-18T11:47:49;15.90;;;4.43;;
22078;SDS011;11206;57.696;11.944;2022-07-18T11:50:17;13.38;;;3.08;;
22078;SDS011;11206;57.696;11.944;2022-07-18T11:52:44;15.90;;;3.65;;
22078;SDS011;11206;57.696;11.944;2022-07-18T11:55:11;6.05;;;2.78;;
22078;SDS011;11206;57.696;11.944;2022-07-18T11:57:37;7.43;;;2.35;;
22078;SDS011;11206;57.696;11.944;2022-07-18T12:00:13;8.32;;;2.38;;
22078;SDS011;11206;57.696;11.944;2022-07-18T12:05:36;7.13;;;1.75;;
22078;SDS011;11206;57.696;11.944;2022-07-18T12:08:24;3.60;;;1.38;;
22078;SDS011;11206;57.696;11.944;2022-07-18T12:16:49;9.65;;;1.90;;
22078;SDS011;11206;57.696;11.944;2022-07-18T12:19:11;9.55;;;2.08;;
22078;SDS011;11206;57.696;11.944;2022-07-18T12:22:23;10.98;;;1.67;;
22078;SDS011;11206;57.696;11.944;2022-07-18T12:24:26;7.22;;;1.80;;
22078;SDS011;11206;57.696;11.944;2022-07-18T12:32:21;4.13;;;1.48;;
22078;SDS011;11206;57.696;11.944;2022-07-18T12:34:54;7.55;;;1.70;;
22078;SDS011;11206;57.696;11.944;2022-07-18T12:37:24;4.45;;;1.70;;
22078;SDS011;11206;57.696;11.944;2022-07-18T12:40:03;4.28;;;1.30;;
22078;SDS011;11206;57.696;11.944;2022-07-18T12:42:32;4.78;;;1.75;;
22078;SDS011;11206;57.696;11.944;2022-07-18T12:44:59;5.25;;;1.33;;
22078;SDS011;11206;57.696;11.944;2022-07-18T12:48:11;5.05;;;1.80;;
22078;SDS011;11206;57.696;11.944;2022-07-18T12:51:15;6.35;;;1.38;;
22078;SDS011;11206;57.696;11.944;2022-07-18T12:53:44;7.22;;;1.80;;
22078;SDS011;11206;57.696;11.944;2022-07-18T12:56:11;4.97;;;1.33;;
22078;SDS011;11206;57.696;11.944;2022-07-18T12:58:38;5.80;;;1.50;;
22078;SDS011;11206;57.696;11.944;2022-07-18T13:01:05;3.53;;;1.20;;
22078;SDS011;11206;57.696;11.944;2022-07-18T13:03:32;4.45;;;1.35;;
22078;SDS011;11206;57.696;11.944;2022-07-18T13:05:59;6.57;;;1.48;;
22078;SDS011;11206;57.696;11.944;2022-07-18T13:08:25;8.07;;;1.90;;
22078;SDS011;11206;57.696;11.944;2022-07-18T13:10:54;9.07;;;1.67;;
22078;SDS011;11206;57.696;11.944;2022-07-18T13:13:29;7.90;;;1.55;;
22078;SDS011;11206;57.696;11.944;2022-07-18T13:15:59;4.90;;;1.27;;
22078;SDS011;11206;57.696;11.944;2022-07-18T13:18:49;10.98;;;1.30;;
22078;SDS011;11206;57.696;11.944;2022-07-18T13:21:16;5.43;;;1.63;;
22078;SDS011;11206;57.696;11.944;2022-07-18T13:23:44;4.75;;;1.40;;
22078;SDS011;11206;57.696;11.944;2022-07-18T13:26:11;7.45;;;1.52;;
22078;SDS011;11206;57.696;11.944;2022-07-18T13:28:38;6.03;;;1.55;;
22078;SDS011;11206;57.696;11.944;2022-07-18T13:31:04;7.07;;;1.92;;
22078;SDS011;11206;57.696;11.944;2022-07-18T13:33:32;6.80;;;1.40;;
22078;SDS011;11206;57.696;11.944;2022-07-18T13:35:58;7.45;;;1.52;;
22078;SDS011;11206;57.696;11.944;2022-07-18T13:38:24;3.65;;;1.35;;
22078;SDS011;11206;57.696;11.944;2022-07-18T13:40:51;8.30;;;1.60;;
22078;SDS011;11206;57.696;11.944;2022-07-18T13:43:18;5.40;;;1.63;;
22078;SDS011;11206;57.696;11.944;2022-07-18T13:45:45;4.40;;;1.40;;
22078;SDS011;11206;57.696;11.944;2022-07-18T13:48:11;7.88;;;1.77;;
22078;SDS011;11206;57.696;11.944;2022-07-18T13:50:37;6.30;;;1.50;;
22078;SDS011;11206;57.696;11.944;2022-07-18T13:53:04;5.05;;;1.52;;
22078;SDS011;11206;57.696;11.944;2022-07-18T13:55:30;8.88;;;1.42;;
22078;SDS011;11206;57.696;11.944;2022-07-18T13:57:56;5.10;;;1.58;;
22078;SDS011;11206;57.696;11.944;2022-07-18T14:00:24;3.78;;;1.13;;
22078;SDS011;11206;57.696;11.944;2022-07-18T14:02:51;2.92;;;1.30;;
22078;SDS011;11206;57.696;11.944;2022-07-18T14:05:40;8.35;;;1.83;;
22078;SDS011;11206;57.696;11.944;2022-07-18T14:08:15;3.92;;;1.50;;
22078;SDS011;11206;57.696;11.944;2022-07-18T14:10:41;5.38;;;1.45;;
22078;SDS011;11206;57.696;11.944;2022-07-18T14:13:12;8.48;;;1.50;;
22078;SDS011;11206;57.696;11.944;2022-07-18T14:15:38;2.55;;;1.42;;
22078;SDS011;11206;57.696;11.944;2022-07-18T14:18:04;3.75;;;1.48;;
22078;SDS011;11206;57.696;11.944;2022-07-18T14:20:31;8.57;;;1.80;;
22078;SDS011;11206;57.696;11.944;2022-07-18T14:22:58;5.35;;;1.60;;
22078;SDS011;11206;57.696;11.944;2022-07-18T14:25:24;6.13;;;2.28;;
22078;SDS011;11206;57.696;11.944;2022-07-18T14:27:50;5.05;;;1.40;;
22078;SDS011;11206;57.696;11.944;2022-07-18T14:30:16;3.53;;;1.52;;
22078;SDS011;11206;57.696;11.944;2022-07-18T14:32:42;2.13;;;1.10;;
22078;SDS011;11206;57.696;11.944;2022-07-18T14:35:09;9.35;;;1.20;;
22078;SDS011;11206;57.696;11.944;2022-07-18T14:37:36;7.75;;;1.80;;
22078;SDS011;11206;57.696;11.944;2022-07-18T14:40:03;6.28;;;1.35;;
22078;SDS011;11206;57.696;11.944;2022-07-18T14:42:29;4.07;;;1.27;;
22078;SDS011;11206;57.696;11.944;2022-07-18T14:44:55;4.15;;;1.23;;
22078;SDS011;11206;57.696;11.944;2022-07-18T14:47:21;10.02;;;1.65;;
22078;SDS011;11206;57.696;11.944;2022-07-18T14:49:47;4.32;;;1.38;;
22078;SDS011;11206;57.696;11.944;2022-07-18T14:52:14;6.53;;;1.70;;
22078;SDS011;11206;57.696;11.944;2022-07-18T14:54:40;3.63;;;1.23;;
22078;SDS011;11206;57.696;11.944;2022-07-18T14:57:07;4.20;;;1.30;;
22078;SDS011;11206;57.696;11.944;2022-07-18T14:59:33;6.32;;;1.27;;
22078;SDS011;11206;57.696;11.944;2022-07-18T15:02:00;11.88;;;1.70;;
22078;SDS011;11206;57.696;11.944;2022-07-18T15:04:31;6.07;;;1.23;;
22078;SDS011;11206;57.696;11.944;2022-07-18T15:06:59;6.70;;;1.63;;
22078;SDS011;11206;57.696;11.944;2022-07-18T15:09:26;5.78;;;1.60;;
22078;SDS011;11206;57.696;11.944;2022-07-18T15:11:52;7.00;;;1.42;;
22078;SDS011;11206;57.696;11.944;2022-07-18T15:14:19;5.75;;;1.15;;
22078;SDS011;11206;57.696;11.944;2022-07-18T15:16:45;4.70;;;1.48;;
22078;SDS011;11206;57.696;11.944;2022-07-18T15:19:12;11.85;;;1.83;;
22078;SDS011;11206;57.696;11.944;2022-07-18T15:21:38;4.72;;;1.45;;
22078;SDS011;11206;57.696;11.944;2022-07-18T15:24:04;12.13;;;1.45;;
22078;SDS011;11206;57.696;11.944;2022-07-18T15:26:32;4.50;;;1.40;;
22078;SDS011;11206;57.696;11.944;2022-07-18T15:29:01;4.75;;;1.30;;
22078;SDS011;11206;57.696;11.944;2022-07-18T15:31:27;6.63;;;1.73;;
22078;SDS011;11206;57.696;11.944;2022-07-18T15:33:53;6.90;;;1.92;;
22078;SDS011;11206;57.696;11.944;2022-07-18T15:36:20;10.60;;;2.17;;
22078;SDS011;11206;57.696;11.944;2022-07-18T15:38:46;6.72;;;1.90;;
22078;SDS011;11206;57.696;11.944;2022-07-18T15:41:12;8.05;;;1.42;;
22078;SDS011;11206;57.696;11.944;2022-07-18T15:43:39;11.05;;;1.65;;